sensor_id;sensor_type;location;lat;lon;timestamp;P1;durP1;ratioP1;P2;durP2;ratioP2
13425;SDS011;6785;57.918;12.530;2022-12-18T00:00:44;52.37;;;18.23;;
13425;SDS011;6785;57.918;12.530;2022-12-18T00:03:11;45.77;;;18.20;;
13425;SDS011;6785;57.918;12.530;2022-12-18T00:05:46;48.87;;;18.10;;
13425;SDS011;6785;57.918;12.530;2022-12-18T00:08:13;46.70;;;17.50;;
13425;SDS011;6785;57.918;12.530;2022-12-18T00:10:40;46.27;;;19.67;;
13425;SDS011;6785;57.918;12.530;2022-12-18T00:13:07;50.60;;;19.60;;
13425;SDS011;6785;57.918;12.530;2022-12-18T00:15:35;51.70;;;19.33;;
13425;SDS011;6785;57.918;12.530;2022-12-18T00:18:01;47.90;;;19.07;;
13425;SDS011;6785;57.918;12.530;2022-12-18T00:20:28;47.10;;;18.43;;
13425;SDS011;6785;57.918;12.530;2022-12-18T00:22:57;44.33;;;17.37;;
13425;SDS011;6785;57.918;12.530;2022-12-18T00:25:23;48.80;;;19.77;;
13425;SDS011;6785;57.918;12.530;2022-12-18T00:27:50;46.53;;;18.33;;
13425;SDS011;6785;57.918;12.530;2022-12-18T00:30:17;48.57;;;18.93;;
13425;SDS011;6785;57.918;12.530;2022-12-18T00:32:44;43.30;;;19.13;;
13425;SDS011;6785;57.918;12.530;2022-12-18T00:35:10;47.67;;;18.07;;
13425;SDS011;6785;57.918;12.530;2022-12-18T00:37:37;50.33;;;18.70;;
13425;SDS011;6785;57.918;12.530;2022-12-18T00:40:06;42.57;;;17.47;;
13425;SDS011;6785;57.918;12.530;2022-12-18T00:42:34;48.20;;;18.00;;
13425;SDS011;6785;57.918;12.530;2022-12-18T00:45:18;41.13;;;16.93;;
13425;SDS011;6785;57.918;12.530;2022-12-18T00:47:45;42.43;;;16.93;;
13425;SDS011;6785;57.918;12.530;2022-12-18T00:50:11;34.63;;;16.47;;
13425;SDS011;6785;57.918;12.530;2022-12-18T00:52:38;43.77;;;16.77;;
13425;SDS011;6785;57.918;12.530;2022-12-18T00:55:08;35.53;;;15.03;;
13425;SDS011;6785;57.918;12.530;2022-12-18T00:57:35;29.10;;;14.40;;
13425;SDS011;6785;57.918;12.530;2022-12-18T01:00:02;33.17;;;14.20;;
13425;SDS011;6785;57.918;12.530;2022-12-18T01:02:30;35.30;;;14.37;;
13425;SDS011;6785;57.918;12.530;2022-12-18T01:04:56;27.03;;;13.80;;
13425;SDS011;6785;57.918;12.530;2022-12-18T01:07:23;28.73;;;13.63;;
13425;SDS011;6785;57.918;12.530;2022-12-18T01:09:50;28.90;;;13.93;;
13425;SDS011;6785;57.918;12.530;2022-12-18T01:12:18;27.13;;;13.50;;
13425;SDS011;6785;57.918;12.530;2022-12-18T01:14:46;32.97;;;13.40;;
13425;SDS011;6785;57.918;12.530;2022-12-18T01:17:13;35.03;;;13.43;;
13425;SDS011;6785;57.918;12.530;2022-12-18T01:19:40;27.93;;;11.60;;
13425;SDS011;6785;57.918;12.530;2022-12-18T01:22:07;30.83;;;12.53;;
13425;SDS011;6785;57.918;12.530;2022-12-18T01:24:33;30.03;;;12.97;;
13425;SDS011;6785;57.918;12.530;2022-12-18T01:27:00;27.00;;;13.03;;
13425;SDS011;6785;57.918;12.530;2022-12-18T01:29:28;26.70;;;11.97;;
13425;SDS011;6785;57.918;12.530;2022-12-18T01:31:55;26.13;;;13.40;;
13425;SDS011;6785;57.918;12.530;2022-12-18T01:34:22;29.93;;;13.37;;
13425;SDS011;6785;57.918;12.530;2022-12-18T01:36:49;24.67;;;11.77;;
13425;SDS011;6785;57.918;12.530;2022-12-18T01:39:17;23.60;;;11.87;;
13425;SDS011;6785;57.918;12.530;2022-12-18T01:41:44;24.27;;;11.87;;
13425;SDS011;6785;57.918;12.530;2022-12-18T01:44:52;25.77;;;11.10;;
13425;SDS011;6785;57.918;12.530;2022-12-18T01:47:27;24.27;;;11.50;;
13425;SDS011;6785;57.918;12.530;2022-12-18T01:49:58;31.10;;;10.97;;
13425;SDS011;6785;57.918;12.530;2022-12-18T01:52:28;22.53;;;10.90;;
13425;SDS011;6785;57.918;12.530;2022-12-18T01:54:57;22.50;;;10.70;;
13425;SDS011;6785;57.918;12.530;2022-12-18T01:57:25;23.83;;;11.17;;
13425;SDS011;6785;57.918;12.530;2022-12-18T01:59:55;23.97;;;10.67;;
13425;SDS011;6785;57.918;12.530;2022-12-18T02:02:26;26.90;;;10.97;;
13425;SDS011;6785;57.918;12.530;2022-12-18T02:04:54;26.47;;;11.03;;
13425;SDS011;6785;57.918;12.530;2022-12-18T02:07:23;19.83;;;10.47;;
13425;SDS011;6785;57.918;12.530;2022-12-18T02:09:57;23.10;;;10.43;;
13425;SDS011;6785;57.918;12.530;2022-12-18T02:12:28;22.53;;;11.03;;
13425;SDS011;6785;57.918;12.530;2022-12-18T02:15:05;22.63;;;11.23;;
13425;SDS011;6785;57.918;12.530;2022-12-18T02:17:39;24.93;;;10.50;;
13425;SDS011;6785;57.918;12.530;2022-12-18T02:20:13;23.23;;;10.33;;
13425;SDS011;6785;57.918;12.530;2022-12-18T02:22:49;22.10;;;10.23;;
13425;SDS011;6785;57.918;12.530;2022-12-18T02:25:28;21.87;;;10.30;;
13425;SDS011;6785;57.918;12.530;2022-12-18T02:28:09;22.70;;;10.20;;
13425;SDS011;6785;57.918;12.530;2022-12-18T02:30:39;19.07;;;8.77;;
13425;SDS011;6785;57.918;12.530;2022-12-18T02:33:08;17.13;;;8.80;;
13425;SDS011;6785;57.918;12.530;2022-12-18T02:35:38;17.87;;;9.60;;
13425;SDS011;6785;57.918;12.530;2022-12-18T02:38:07;17.07;;;8.90;;
13425;SDS011;6785;57.918;12.530;2022-12-18T02:40:34;15.53;;;8.27;;
13425;SDS011;6785;57.918;12.530;2022-12-18T02:43:07;13.90;;;7.33;;
13425;SDS011;6785;57.918;12.530;2022-12-18T02:45:35;14.30;;;7.40;;
13425;SDS011;6785;57.918;12.530;2022-12-18T02:48:02;18.17;;;8.20;;
13425;SDS011;6785;57.918;12.530;2022-12-18T02:50:30;11.93;;;6.50;;
13425;SDS011;6785;57.918;12.530;2022-12-18T02:53:06;9.33;;;6.17;;
13425;SDS011;6785;57.918;12.530;2022-12-18T02:55:45;10.20;;;5.43;;
13425;SDS011;6785;57.918;12.530;2022-12-18T02:58:27;11.40;;;5.73;;
13425;SDS011;6785;57.918;12.530;2022-12-18T03:01:01;14.07;;;6.37;;
13425;SDS011;6785;57.918;12.530;2022-12-18T03:03:33;14.63;;;7.97;;
13425;SDS011;6785;57.918;12.530;2022-12-18T03:06:06;14.77;;;7.33;;
13425;SDS011;6785;57.918;12.530;2022-12-18T03:08:37;19.97;;;8.60;;
13425;SDS011;6785;57.918;12.530;2022-12-18T03:11:07;17.20;;;7.63;;
13425;SDS011;6785;57.918;12.530;2022-12-18T03:13:37;13.67;;;8.40;;
13425;SDS011;6785;57.918;12.530;2022-12-18T03:16:08;20.63;;;10.00;;
13425;SDS011;6785;57.918;12.530;2022-12-18T03:18:38;19.57;;;9.73;;
13425;SDS011;6785;57.918;12.530;2022-12-18T03:21:12;23.63;;;10.60;;
13425;SDS011;6785;57.918;12.530;2022-12-18T03:23:42;25.00;;;11.63;;
13425;SDS011;6785;57.918;12.530;2022-12-18T03:26:14;24.10;;;11.70;;
13425;SDS011;6785;57.918;12.530;2022-12-18T03:28:45;27.90;;;12.50;;
13425;SDS011;6785;57.918;12.530;2022-12-18T03:31:15;34.33;;;13.23;;
13425;SDS011;6785;57.918;12.530;2022-12-18T03:33:44;33.63;;;14.07;;
13425;SDS011;6785;57.918;12.530;2022-12-18T03:36:16;40.97;;;15.17;;
13425;SDS011;6785;57.918;12.530;2022-12-18T03:38:43;34.67;;;15.17;;
13425;SDS011;6785;57.918;12.530;2022-12-18T03:41:11;38.87;;;16.20;;
13425;SDS011;6785;57.918;12.530;2022-12-18T03:43:47;36.87;;;15.63;;
13425;SDS011;6785;57.918;12.530;2022-12-18T03:46:21;36.73;;;15.30;;
13425;SDS011;6785;57.918;12.530;2022-12-18T03:48:56;36.97;;;15.40;;
13425;SDS011;6785;57.918;12.530;2022-12-18T03:51:28;32.57;;;15.60;;
13425;SDS011;6785;57.918;12.530;2022-12-18T03:54:03;32.17;;;16.03;;
13425;SDS011;6785;57.918;12.530;2022-12-18T03:56:33;35.50;;;15.13;;
13425;SDS011;6785;57.918;12.530;2022-12-18T03:59:06;36.00;;;14.97;;
13425;SDS011;6785;57.918;12.530;2022-12-18T04:01:35;36.30;;;15.73;;
13425;SDS011;6785;57.918;12.530;2022-12-18T04:04:09;46.90;;;16.57;;
13425;SDS011;6785;57.918;12.530;2022-12-18T04:06:38;38.53;;;15.83;;
13425;SDS011;6785;57.918;12.530;2022-12-18T04:09:07;45.93;;;16.47;;
13425;SDS011;6785;57.918;12.530;2022-12-18T04:11:34;53.77;;;18.17;;
13425;SDS011;6785;57.918;12.530;2022-12-18T04:14:00;52.20;;;18.67;;
13425;SDS011;6785;57.918;12.530;2022-12-18T04:16:29;43.17;;;17.57;;
13425;SDS011;6785;57.918;12.530;2022-12-18T04:18:55;54.10;;;18.30;;
13425;SDS011;6785;57.918;12.530;2022-12-18T04:21:22;60.07;;;20.03;;
13425;SDS011;6785;57.918;12.530;2022-12-18T04:23:49;53.47;;;19.23;;
13425;SDS011;6785;57.918;12.530;2022-12-18T04:26:16;51.17;;;19.93;;
13425;SDS011;6785;57.918;12.530;2022-12-18T04:28:43;53.43;;;18.43;;
13425;SDS011;6785;57.918;12.530;2022-12-18T04:31:09;54.63;;;20.17;;
13425;SDS011;6785;57.918;12.530;2022-12-18T04:33:37;62.60;;;19.83;;
13425;SDS011;6785;57.918;12.530;2022-12-18T04:36:04;57.80;;;18.60;;
13425;SDS011;6785;57.918;12.530;2022-12-18T04:38:31;61.93;;;21.53;;
13425;SDS011;6785;57.918;12.530;2022-12-18T04:40:58;58.63;;;19.20;;
13425;SDS011;6785;57.918;12.530;2022-12-18T04:43:25;53.27;;;21.20;;
13425;SDS011;6785;57.918;12.530;2022-12-18T04:45:52;64.80;;;20.73;;
13425;SDS011;6785;57.918;12.530;2022-12-18T04:48:18;56.50;;;21.10;;
13425;SDS011;6785;57.918;12.530;2022-12-18T04:50:47;58.13;;;21.27;;
13425;SDS011;6785;57.918;12.530;2022-12-18T04:53:14;55.33;;;20.10;;
13425;SDS011;6785;57.918;12.530;2022-12-18T04:55:41;64.67;;;21.70;;
13425;SDS011;6785;57.918;12.530;2022-12-18T04:58:07;72.00;;;22.00;;
13425;SDS011;6785;57.918;12.530;2022-12-18T05:00:34;57.00;;;22.23;;
13425;SDS011;6785;57.918;12.530;2022-12-18T05:03:01;71.53;;;22.23;;
13425;SDS011;6785;57.918;12.530;2022-12-18T05:05:28;69.77;;;22.13;;
13425;SDS011;6785;57.918;12.530;2022-12-18T05:07:56;82.20;;;22.80;;
13425;SDS011;6785;57.918;12.530;2022-12-18T05:10:22;66.10;;;22.40;;
13425;SDS011;6785;57.918;12.530;2022-12-18T05:12:49;67.53;;;21.73;;
13425;SDS011;6785;57.918;12.530;2022-12-18T05:15:26;62.90;;;21.57;;
13425;SDS011;6785;57.918;12.530;2022-12-18T05:17:53;59.67;;;20.27;;
13425;SDS011;6785;57.918;12.530;2022-12-18T05:20:20;66.17;;;22.63;;
13425;SDS011;6785;57.918;12.530;2022-12-18T05:22:47;63.60;;;20.80;;
13425;SDS011;6785;57.918;12.530;2022-12-18T05:25:15;65.60;;;20.93;;
13425;SDS011;6785;57.918;12.530;2022-12-18T05:27:42;66.10;;;20.40;;
13425;SDS011;6785;57.918;12.530;2022-12-18T05:30:10;58.50;;;20.20;;
13425;SDS011;6785;57.918;12.530;2022-12-18T05:32:38;53.80;;;19.50;;
13425;SDS011;6785;57.918;12.530;2022-12-18T05:35:06;60.00;;;20.13;;
13425;SDS011;6785;57.918;12.530;2022-12-18T05:37:34;51.97;;;19.20;;
13425;SDS011;6785;57.918;12.530;2022-12-18T05:40:01;60.03;;;20.20;;
13425;SDS011;6785;57.918;12.530;2022-12-18T05:42:29;56.20;;;19.43;;
13425;SDS011;6785;57.918;12.530;2022-12-18T05:44:56;53.67;;;18.07;;
13425;SDS011;6785;57.918;12.530;2022-12-18T05:47:22;46.57;;;18.03;;
13425;SDS011;6785;57.918;12.530;2022-12-18T05:49:49;53.27;;;18.53;;
13425;SDS011;6785;57.918;12.530;2022-12-18T05:52:16;53.83;;;18.17;;
13425;SDS011;6785;57.918;12.530;2022-12-18T05:54:43;51.50;;;16.13;;
13425;SDS011;6785;57.918;12.530;2022-12-18T05:57:09;47.23;;;17.27;;
13425;SDS011;6785;57.918;12.530;2022-12-18T05:59:38;51.47;;;17.60;;
13425;SDS011;6785;57.918;12.530;2022-12-18T06:02:04;50.67;;;16.43;;
13425;SDS011;6785;57.918;12.530;2022-12-18T06:04:31;47.43;;;16.30;;
13425;SDS011;6785;57.918;12.530;2022-12-18T06:06:58;46.63;;;16.07;;
13425;SDS011;6785;57.918;12.530;2022-12-18T06:09:24;45.70;;;16.37;;
13425;SDS011;6785;57.918;12.530;2022-12-18T06:11:51;37.47;;;15.30;;
13425;SDS011;6785;57.918;12.530;2022-12-18T06:14:18;38.70;;;14.97;;
13425;SDS011;6785;57.918;12.530;2022-12-18T06:16:46;42.43;;;15.23;;
13425;SDS011;6785;57.918;12.530;2022-12-18T06:19:14;38.83;;;14.37;;
13425;SDS011;6785;57.918;12.530;2022-12-18T06:21:42;45.60;;;14.60;;
13425;SDS011;6785;57.918;12.530;2022-12-18T06:24:08;42.83;;;16.17;;
13425;SDS011;6785;57.918;12.530;2022-12-18T06:26:36;37.70;;;12.73;;
13425;SDS011;6785;57.918;12.530;2022-12-18T06:29:03;37.63;;;13.67;;
13425;SDS011;6785;57.918;12.530;2022-12-18T06:31:30;37.63;;;14.23;;
13425;SDS011;6785;57.918;12.530;2022-12-18T06:33:59;39.53;;;13.27;;
13425;SDS011;6785;57.918;12.530;2022-12-18T06:36:29;32.73;;;12.20;;
13425;SDS011;6785;57.918;12.530;2022-12-18T06:38:55;44.67;;;12.77;;
13425;SDS011;6785;57.918;12.530;2022-12-18T06:41:23;35.50;;;12.63;;
13425;SDS011;6785;57.918;12.530;2022-12-18T06:43:50;26.67;;;11.97;;
13425;SDS011;6785;57.918;12.530;2022-12-18T06:46:16;39.73;;;12.47;;
13425;SDS011;6785;57.918;12.530;2022-12-18T06:48:46;40.03;;;11.43;;
13425;SDS011;6785;57.918;12.530;2022-12-18T06:51:16;30.53;;;10.50;;
13425;SDS011;6785;57.918;12.530;2022-12-18T06:53:44;27.53;;;9.97;;
13425;SDS011;6785;57.918;12.530;2022-12-18T06:56:11;27.90;;;10.70;;
13425;SDS011;6785;57.918;12.530;2022-12-18T06:58:37;32.23;;;10.17;;
13425;SDS011;6785;57.918;12.530;2022-12-18T07:01:05;28.73;;;10.40;;
13425;SDS011;6785;57.918;12.530;2022-12-18T07:03:33;29.43;;;9.17;;
13425;SDS011;6785;57.918;12.530;2022-12-18T07:06:00;26.70;;;9.50;;
13425;SDS011;6785;57.918;12.530;2022-12-18T07:08:28;31.67;;;9.10;;
13425;SDS011;6785;57.918;12.530;2022-12-18T07:10:55;25.37;;;9.43;;
13425;SDS011;6785;57.918;12.530;2022-12-18T07:13:21;26.83;;;8.47;;
13425;SDS011;6785;57.918;12.530;2022-12-18T07:15:48;22.63;;;9.00;;
13425;SDS011;6785;57.918;12.530;2022-12-18T07:18:15;16.37;;;7.07;;
13425;SDS011;6785;57.918;12.530;2022-12-18T07:20:42;31.07;;;7.97;;
13425;SDS011;6785;57.918;12.530;2022-12-18T07:23:09;22.53;;;7.60;;
13425;SDS011;6785;57.918;12.530;2022-12-18T07:25:37;19.70;;;7.00;;
13425;SDS011;6785;57.918;12.530;2022-12-18T07:28:04;22.13;;;7.63;;
13425;SDS011;6785;57.918;12.530;2022-12-18T07:30:31;20.90;;;6.70;;
13425;SDS011;6785;57.918;12.530;2022-12-18T07:32:58;22.80;;;6.80;;
13425;SDS011;6785;57.918;12.530;2022-12-18T07:35:24;19.83;;;7.63;;
13425;SDS011;6785;57.918;12.530;2022-12-18T07:37:51;16.53;;;7.97;;
13425;SDS011;6785;57.918;12.530;2022-12-18T07:40:18;28.53;;;7.53;;
13425;SDS011;6785;57.918;12.530;2022-12-18T07:42:46;24.43;;;8.43;;
13425;SDS011;6785;57.918;12.530;2022-12-18T07:45:13;21.13;;;7.93;;
13425;SDS011;6785;57.918;12.530;2022-12-18T07:47:39;17.47;;;7.87;;
13425;SDS011;6785;57.918;12.530;2022-12-18T07:50:07;20.93;;;7.47;;
13425;SDS011;6785;57.918;12.530;2022-12-18T07:52:34;18.80;;;6.93;;
13425;SDS011;6785;57.918;12.530;2022-12-18T07:55:00;23.70;;;7.10;;
13425;SDS011;6785;57.918;12.530;2022-12-18T07:57:27;28.13;;;8.27;;
13425;SDS011;6785;57.918;12.530;2022-12-18T07:59:55;14.97;;;6.67;;
13425;SDS011;6785;57.918;12.530;2022-12-18T08:02:22;26.07;;;8.07;;
13425;SDS011;6785;57.918;12.530;2022-12-18T08:04:49;15.57;;;6.90;;
13425;SDS011;6785;57.918;12.530;2022-12-18T08:07:15;21.13;;;6.90;;
13425;SDS011;6785;57.918;12.530;2022-12-18T08:09:42;21.33;;;6.73;;
13425;SDS011;6785;57.918;12.530;2022-12-18T08:12:09;22.10;;;7.33;;
13425;SDS011;6785;57.918;12.530;2022-12-18T08:14:35;22.87;;;8.43;;
13425;SDS011;6785;57.918;12.530;2022-12-18T08:17:04;24.20;;;7.30;;
13425;SDS011;6785;57.918;12.530;2022-12-18T08:19:30;23.23;;;7.43;;
13425;SDS011;6785;57.918;12.530;2022-12-18T08:21:57;18.00;;;6.50;;
13425;SDS011;6785;57.918;12.530;2022-12-18T08:24:24;20.93;;;6.93;;
13425;SDS011;6785;57.918;12.530;2022-12-18T08:26:50;21.00;;;7.00;;
13425;SDS011;6785;57.918;12.530;2022-12-18T08:29:17;20.40;;;6.17;;
13425;SDS011;6785;57.918;12.530;2022-12-18T08:31:44;15.47;;;7.17;;
13425;SDS011;6785;57.918;12.530;2022-12-18T08:34:12;19.73;;;5.97;;
13425;SDS011;6785;57.918;12.530;2022-12-18T08:36:39;19.27;;;5.53;;
13425;SDS011;6785;57.918;12.530;2022-12-18T08:39:06;16.77;;;5.90;;
13425;SDS011;6785;57.918;12.530;2022-12-18T08:41:33;16.20;;;6.27;;
13425;SDS011;6785;57.918;12.530;2022-12-18T08:43:59;11.67;;;5.70;;
13425;SDS011;6785;57.918;12.530;2022-12-18T08:46:44;15.97;;;5.63;;
13425;SDS011;6785;57.918;12.530;2022-12-18T08:49:12;19.63;;;5.63;;
13425;SDS011;6785;57.918;12.530;2022-12-18T08:51:39;18.97;;;5.63;;
13425;SDS011;6785;57.918;12.530;2022-12-18T08:54:06;13.73;;;5.70;;
13425;SDS011;6785;57.918;12.530;2022-12-18T08:56:32;16.13;;;5.30;;
13425;SDS011;6785;57.918;12.530;2022-12-18T08:58:59;19.77;;;6.17;;
13425;SDS011;6785;57.918;12.530;2022-12-18T09:01:26;14.37;;;5.33;;
13425;SDS011;6785;57.918;12.530;2022-12-18T09:03:53;14.43;;;5.33;;
13425;SDS011;6785;57.918;12.530;2022-12-18T09:06:21;16.93;;;5.13;;
13425;SDS011;6785;57.918;12.530;2022-12-18T09:08:49;11.23;;;5.17;;
13425;SDS011;6785;57.918;12.530;2022-12-18T09:11:19;11.87;;;4.97;;
13425;SDS011;6785;57.918;12.530;2022-12-18T09:13:46;13.90;;;5.60;;
13425;SDS011;6785;57.918;12.530;2022-12-18T09:16:13;17.43;;;5.43;;
13425;SDS011;6785;57.918;12.530;2022-12-18T09:18:40;16.20;;;4.90;;
13425;SDS011;6785;57.918;12.530;2022-12-18T09:21:07;20.10;;;5.67;;
13425;SDS011;6785;57.918;12.530;2022-12-18T09:23:36;12.30;;;5.40;;
13425;SDS011;6785;57.918;12.530;2022-12-18T09:26:03;17.02;;;6.15;;
13425;SDS011;6785;57.918;12.530;2022-12-18T09:28:30;16.20;;;5.77;;
13425;SDS011;6785;57.918;12.530;2022-12-18T09:30:57;28.10;;;5.97;;
13425;SDS011;6785;57.918;12.530;2022-12-18T09:33:23;18.10;;;5.73;;
13425;SDS011;6785;57.918;12.530;2022-12-18T09:35:50;13.97;;;6.33;;
13425;SDS011;6785;57.918;12.530;2022-12-18T09:38:17;24.90;;;5.63;;
13425;SDS011;6785;57.918;12.530;2022-12-18T09:40:46;17.73;;;6.20;;
13425;SDS011;6785;57.918;12.530;2022-12-18T09:43:15;15.10;;;5.23;;
13425;SDS011;6785;57.918;12.530;2022-12-18T09:45:45;24.13;;;6.20;;
13425;SDS011;6785;57.918;12.530;2022-12-18T09:48:15;13.60;;;5.10;;
13425;SDS011;6785;57.918;12.530;2022-12-18T09:50:49;21.33;;;6.60;;
13425;SDS011;6785;57.918;12.530;2022-12-18T09:53:19;17.27;;;5.70;;
13425;SDS011;6785;57.918;12.530;2022-12-18T09:55:49;17.50;;;5.87;;
13425;SDS011;6785;57.918;12.530;2022-12-18T09:58:19;12.67;;;5.70;;
13425;SDS011;6785;57.918;12.530;2022-12-18T10:00:51;20.77;;;6.93;;
13425;SDS011;6785;57.918;12.530;2022-12-18T10:03:18;17.97;;;5.93;;
13425;SDS011;6785;57.918;12.530;2022-12-18T10:05:46;15.27;;;5.83;;
13425;SDS011;6785;57.918;12.530;2022-12-18T10:08:25;19.93;;;6.30;;
13425;SDS011;6785;57.918;12.530;2022-12-18T10:11:03;13.17;;;5.43;;
13425;SDS011;6785;57.918;12.530;2022-12-18T10:13:43;12.23;;;6.23;;
13425;SDS011;6785;57.918;12.530;2022-12-18T10:16:16;23.73;;;6.40;;
13425;SDS011;6785;57.918;12.530;2022-12-18T10:18:57;17.60;;;6.40;;
13425;SDS011;6785;57.918;12.530;2022-12-18T10:21:45;10.50;;;5.23;;
13425;SDS011;6785;57.918;12.530;2022-12-18T10:24:18;16.17;;;5.80;;
13425;SDS011;6785;57.918;12.530;2022-12-18T10:26:56;12.37;;;5.40;;
13425;SDS011;6785;57.918;12.530;2022-12-18T10:29:34;16.87;;;5.77;;
13425;SDS011;6785;57.918;12.530;2022-12-18T10:32:01;19.17;;;5.40;;
13425;SDS011;6785;57.918;12.530;2022-12-18T10:34:28;18.73;;;5.63;;
13425;SDS011;6785;57.918;12.530;2022-12-18T10:36:55;15.53;;;4.83;;
13425;SDS011;6785;57.918;12.530;2022-12-18T10:39:23;19.00;;;5.70;;
13425;SDS011;6785;57.918;12.530;2022-12-18T10:41:51;12.63;;;5.00;;
13425;SDS011;6785;57.918;12.530;2022-12-18T10:44:33;11.33;;;5.03;;
13425;SDS011;6785;57.918;12.530;2022-12-18T10:47:02;9.13;;;4.87;;
13425;SDS011;6785;57.918;12.530;2022-12-18T10:49:32;17.87;;;4.73;;
13425;SDS011;6785;57.918;12.530;2022-12-18T10:52:05;15.80;;;4.77;;
13425;SDS011;6785;57.918;12.530;2022-12-18T10:54:37;12.43;;;4.53;;
13425;SDS011;6785;57.918;12.530;2022-12-18T10:57:14;17.03;;;4.80;;
13425;SDS011;6785;57.918;12.530;2022-12-18T10:59:51;14.50;;;5.07;;
13425;SDS011;6785;57.918;12.530;2022-12-18T11:02:26;12.07;;;4.73;;
13425;SDS011;6785;57.918;12.530;2022-12-18T11:04:59;24.20;;;5.40;;
13425;SDS011;6785;57.918;12.530;2022-12-18T11:07:26;16.57;;;4.80;;
13425;SDS011;6785;57.918;12.530;2022-12-18T11:10:15;16.13;;;5.33;;
13425;SDS011;6785;57.918;12.530;2022-12-18T11:12:43;12.10;;;4.57;;
13425;SDS011;6785;57.918;12.530;2022-12-18T11:15:15;13.93;;;4.80;;
13425;SDS011;6785;57.918;12.530;2022-12-18T11:17:44;12.43;;;4.47;;
13425;SDS011;6785;57.918;12.530;2022-12-18T11:20:19;19.60;;;4.97;;
13425;SDS011;6785;57.918;12.530;2022-12-18T11:22:54;13.33;;;4.67;;
13425;SDS011;6785;57.918;12.530;2022-12-18T11:25:23;13.97;;;3.77;;
13425;SDS011;6785;57.918;12.530;2022-12-18T11:27:51;15.80;;;4.70;;
13425;SDS011;6785;57.918;12.530;2022-12-18T11:30:24;9.97;;;4.17;;
13425;SDS011;6785;57.918;12.530;2022-12-18T11:32:53;13.60;;;4.30;;
13425;SDS011;6785;57.918;12.530;2022-12-18T11:35:35;17.77;;;4.40;;
13425;SDS011;6785;57.918;12.530;2022-12-18T11:38:11;14.03;;;4.03;;
13425;SDS011;6785;57.918;12.530;2022-12-18T11:40:44;16.83;;;4.03;;
13425;SDS011;6785;57.918;12.530;2022-12-18T11:43:16;18.80;;;4.50;;
13425;SDS011;6785;57.918;12.530;2022-12-18T11:45:51;14.70;;;4.40;;
13425;SDS011;6785;57.918;12.530;2022-12-18T11:48:22;11.43;;;4.60;;
13425;SDS011;6785;57.918;12.530;2022-12-18T11:50:53;12.97;;;4.33;;
13425;SDS011;6785;57.918;12.530;2022-12-18T11:53:22;10.07;;;4.23;;
13425;SDS011;6785;57.918;12.530;2022-12-18T11:55:54;17.03;;;4.20;;
13425;SDS011;6785;57.918;12.530;2022-12-18T11:58:32;11.77;;;4.80;;
13425;SDS011;6785;57.918;12.530;2022-12-18T12:01:15;16.33;;;4.17;;
13425;SDS011;6785;57.918;12.530;2022-12-18T12:06:48;10.93;;;4.13;;
13425;SDS011;6785;57.918;12.530;2022-12-18T12:09:22;10.10;;;3.90;;
13425;SDS011;6785;57.918;12.530;2022-12-18T12:11:59;17.03;;;4.83;;
13425;SDS011;6785;57.918;12.530;2022-12-18T12:14:41;14.63;;;3.73;;
13425;SDS011;6785;57.918;12.530;2022-12-18T12:17:20;13.20;;;3.83;;
13425;SDS011;6785;57.918;12.530;2022-12-18T12:19:54;12.50;;;3.73;;
13425;SDS011;6785;57.918;12.530;2022-12-18T12:22:28;15.27;;;4.33;;
13425;SDS011;6785;57.918;12.530;2022-12-18T12:25:09;14.13;;;4.30;;
13425;SDS011;6785;57.918;12.530;2022-12-18T12:27:46;11.33;;;4.57;;
13425;SDS011;6785;57.918;12.530;2022-12-18T12:30:24;11.07;;;4.30;;
13425;SDS011;6785;57.918;12.530;2022-12-18T12:33:04;6.23;;;3.97;;
13425;SDS011;6785;57.918;12.530;2022-12-18T12:35:44;11.10;;;4.40;;
13425;SDS011;6785;57.918;12.530;2022-12-18T12:38:19;17.37;;;5.00;;
13425;SDS011;6785;57.918;12.530;2022-12-18T12:40:48;15.23;;;5.50;;
13425;SDS011;6785;57.918;12.530;2022-12-18T12:43:21;12.23;;;3.60;;
13425;SDS011;6785;57.918;12.530;2022-12-18T12:45:52;11.63;;;3.80;;
13425;SDS011;6785;57.918;12.530;2022-12-18T12:48:27;23.83;;;4.60;;
13425;SDS011;6785;57.918;12.530;2022-12-18T12:51:03;12.23;;;4.30;;
13425;SDS011;6785;57.918;12.530;2022-12-18T12:53:37;14.23;;;4.53;;
13425;SDS011;6785;57.918;12.530;2022-12-18T12:56:06;14.80;;;4.63;;
13425;SDS011;6785;57.918;12.530;2022-12-18T12:58:36;10.60;;;4.30;;
13425;SDS011;6785;57.918;12.530;2022-12-18T13:01:15;13.60;;;4.73;;
13425;SDS011;6785;57.918;12.530;2022-12-18T13:03:54;12.13;;;4.50;;
13425;SDS011;6785;57.918;12.530;2022-12-18T13:06:30;15.50;;;5.10;;
13425;SDS011;6785;57.918;12.530;2022-12-18T13:09:06;14.30;;;4.60;;
13425;SDS011;6785;57.918;12.530;2022-12-18T13:11:37;16.20;;;4.60;;
13425;SDS011;6785;57.918;12.530;2022-12-18T13:14:23;14.70;;;4.33;;
13425;SDS011;6785;57.918;12.530;2022-12-18T13:22:45;20.13;;;5.33;;
13425;SDS011;6785;57.918;12.530;2022-12-18T13:25:26;19.73;;;4.80;;
13425;SDS011;6785;57.918;12.530;2022-12-18T13:27:57;12.20;;;4.20;;
13425;SDS011;6785;57.918;12.530;2022-12-18T13:30:41;13.67;;;3.83;;
13425;SDS011;6785;57.918;12.530;2022-12-18T13:33:37;19.37;;;4.60;;
13425;SDS011;6785;57.918;12.530;2022-12-18T13:36:13;9.50;;;4.27;;
13425;SDS011;6785;57.918;12.530;2022-12-18T13:38:42;10.83;;;4.13;;
13425;SDS011;6785;57.918;12.530;2022-12-18T13:41:23;14.87;;;4.57;;
13425;SDS011;6785;57.918;12.530;2022-12-18T13:43:52;14.33;;;4.03;;
13425;SDS011;6785;57.918;12.530;2022-12-18T13:46:20;14.03;;;4.50;;
13425;SDS011;6785;57.918;12.530;2022-12-18T13:48:51;12.20;;;4.27;;
13425;SDS011;6785;57.918;12.530;2022-12-18T13:51:22;18.40;;;4.10;;
13425;SDS011;6785;57.918;12.530;2022-12-18T13:53:50;10.93;;;4.20;;
13425;SDS011;6785;57.918;12.530;2022-12-18T13:56:21;10.30;;;3.90;;
13425;SDS011;6785;57.918;12.530;2022-12-18T14:01:48;17.17;;;3.47;;
13425;SDS011;6785;57.918;12.530;2022-12-18T14:04:22;7.63;;;3.80;;
13425;SDS011;6785;57.918;12.530;2022-12-18T14:06:54;12.37;;;4.50;;
13425;SDS011;6785;57.918;12.530;2022-12-18T14:09:24;12.93;;;4.13;;
13425;SDS011;6785;57.918;12.530;2022-12-18T14:11:53;16.63;;;4.77;;
13425;SDS011;6785;57.918;12.530;2022-12-18T14:14:42;18.10;;;3.97;;
13425;SDS011;6785;57.918;12.530;2022-12-18T14:17:12;15.90;;;4.73;;
13425;SDS011;6785;57.918;12.530;2022-12-18T14:19:43;17.23;;;3.87;;
13425;SDS011;6785;57.918;12.530;2022-12-18T14:22:15;9.63;;;3.60;;
13425;SDS011;6785;57.918;12.530;2022-12-18T14:24:44;16.20;;;4.40;;
13425;SDS011;6785;57.918;12.530;2022-12-18T14:27:13;16.77;;;3.90;;
13425;SDS011;6785;57.918;12.530;2022-12-18T14:29:48;16.20;;;4.03;;
13425;SDS011;6785;57.918;12.530;2022-12-18T14:32:15;13.73;;;3.53;;
13425;SDS011;6785;57.918;12.530;2022-12-18T14:34:43;13.27;;;4.20;;
13425;SDS011;6785;57.918;12.530;2022-12-18T14:37:12;8.60;;;4.13;;
13425;SDS011;6785;57.918;12.530;2022-12-18T14:39:51;9.97;;;3.87;;
13425;SDS011;6785;57.918;12.530;2022-12-18T14:42:23;16.87;;;4.20;;
13425;SDS011;6785;57.918;12.530;2022-12-18T14:47:53;13.20;;;3.93;;
13425;SDS011;6785;57.918;12.530;2022-12-18T14:50:19;11.13;;;3.57;;
13425;SDS011;6785;57.918;12.530;2022-12-18T14:52:48;10.47;;;3.37;;
13425;SDS011;6785;57.918;12.530;2022-12-18T14:55:15;13.80;;;3.80;;
13425;SDS011;6785;57.918;12.530;2022-12-18T14:57:43;12.03;;;3.67;;
13425;SDS011;6785;57.918;12.530;2022-12-18T15:00:15;8.73;;;3.93;;